createdAt,value
2022-08-22T00:00:49.930Z,944.1
2022-08-22T00:01:52.444Z,944.1
2022-08-22T00:02:51.913Z,944.3
2022-08-22T00:03:25.168Z,944.1
2022-08-22T00:04:35.416Z,944.1
2022-08-22T00:05:37.265Z,944.1
2022-08-22T00:06:39.115Z,944.1
2022-08-22T00:07:40.967Z,944.1
2022-08-22T00:08:42.917Z,944.1
2022-08-22T00:09:44.737Z,944.2
2022-08-22T00:10:46.585Z,944.1
2022-08-22T00:11:48.366Z,944.2
2022-08-22T00:12:50.285Z,944.1
2022-08-22T00:14:02.408Z,944.2
2022-08-22T00:15:04.255Z,944.2
2022-08-22T00:16:06.415Z,944.2
2022-08-22T00:17:08.160Z,944.2
2022-08-22T00:18:09.937Z,944.1
2022-08-22T00:19:13.916Z,944.1
2022-08-22T00:20:15.767Z,944.1
2022-08-22T00:21:17.608Z,944.1
2022-08-22T00:22:19.460Z,944.1
2022-08-22T00:23:21.310Z,944.1
2022-08-22T00:24:23.262Z,944.1
2022-08-22T00:25:26.648Z,944.1
2022-08-22T00:26:28.500Z,944.1
2022-08-22T00:27:30.350Z,944.1
2022-08-22T00:28:32.210Z,944.1
2022-08-22T00:29:34.357Z,944.1
2022-08-22T00:30:36.205Z,944.1
2022-08-22T00:31:38.026Z,944.1
2022-08-22T00:32:39.907Z,944.1
2022-08-22T00:33:41.759Z,944.1
2022-08-22T00:34:43.711Z,944
2022-08-22T00:35:45.873Z,944
2022-08-22T00:36:48.439Z,943.9
2022-08-22T00:37:50.282Z,944
2022-08-22T00:38:52.132Z,944
2022-08-22T00:39:54.453Z,944
2022-08-22T00:40:56.754Z,944
2022-08-22T00:41:58.602Z,944
2022-08-22T00:43:00.454Z,944
2022-08-22T00:44:02.308Z,944
2022-08-22T00:45:04.158Z,944
2022-08-22T00:46:06.108Z,944
2022-08-22T00:47:07.954Z,944
2022-08-22T00:48:15.232Z,944
2022-08-22T00:49:17.083Z,944
2022-08-22T00:50:18.934Z,944
2022-08-22T00:51:20.896Z,944
2022-08-22T00:52:22.744Z,944
2022-08-22T00:53:24.586Z,944
2022-08-22T00:54:26.444Z,944
2022-08-22T00:55:35.370Z,944
2022-08-22T00:56:40.125Z,943.9
2022-08-22T00:57:41.918Z,944
2022-08-22T00:58:43.769Z,943.9
2022-08-22T00:59:45.590Z,944
2022-08-22T01:00:47.608Z,944
2022-08-22T01:01:49.523Z,943.9
2022-08-22T01:02:53.317Z,943.9
2022-08-22T01:03:55.166Z,943.9
2022-08-22T01:05:00.091Z,943.9
2022-08-22T01:06:01.938Z,943.9
2022-08-22T01:07:03.892Z,943.9
2022-08-22T01:08:05.743Z,943.9
2022-08-22T01:09:07.593Z,943.9
2022-08-22T01:10:09.444Z,943.9
2022-08-22T01:11:11.291Z,943.9
2022-08-22T01:12:13.246Z,943.9
2022-08-22T01:13:15.097Z,943.9
2022-08-22T01:14:17.046Z,944
2022-08-22T01:15:18.901Z,944
2022-08-22T01:16:20.749Z,944
2022-08-22T01:17:22.603Z,944
2022-08-22T01:18:24.448Z,944
2022-08-22T01:19:26.399Z,944
2022-08-22T01:20:28.252Z,944
2022-08-22T01:21:30.099Z,944
2022-08-22T01:22:31.947Z,944
2022-08-22T01:23:33.800Z,944
2022-08-22T01:24:35.751Z,944
2022-08-22T01:25:40.290Z,944
2022-08-22T01:26:45.186Z,944
2022-08-22T01:27:51.233Z,944
2022-08-22T01:28:53.187Z,944
2022-08-22T01:29:55.241Z,944
2022-08-22T01:30:57.092Z,944
2022-08-22T01:31:58.942Z,944
2022-08-22T01:33:00.802Z,944
2022-08-22T01:34:05.200Z,944
2022-08-22T01:35:17.804Z,944
2022-08-22T01:36:19.655Z,944
2022-08-22T01:37:21.502Z,944
2022-08-22T01:38:23.456Z,944
2022-08-22T01:39:25.307Z,944
2022-08-22T01:40:27.668Z,944.1
2022-08-22T01:41:29.520Z,944.1
2022-08-22T01:42:31.368Z,944.1
2022-08-22T01:44:01.326Z,944.1
2022-08-22T01:45:03.126Z,944.1
2022-08-22T01:46:04.975Z,944.1
2022-08-22T01:47:06.829Z,944.1
2022-08-22T01:48:08.692Z,944.1
2022-08-22T01:49:11.347Z,944.1
2022-08-22T01:50:13.197Z,944
2022-08-22T01:51:15.046Z,944
2022-08-22T01:52:20.070Z,944
2022-08-22T01:53:21.921Z,944
2022-08-22T01:54:23.770Z,944
2022-08-22T01:55:25.517Z,944
2022-08-22T01:56:27.367Z,944
2022-08-22T01:57:29.216Z,944
2022-08-22T01:58:31.065Z,944
2022-08-22T01:59:34.466Z,944
2022-08-22T02:00:41.652Z,944
2022-08-22T02:01:43.580Z,944
2022-08-22T02:02:45.531Z,944
2022-08-22T02:03:47.484Z,944
2022-08-22T02:04:49.450Z,944
2022-08-22T02:05:51.288Z,944
2022-08-22T02:06:53.149Z,944
2022-08-22T02:07:55.011Z,944
2022-08-22T02:08:57.058Z,944
2022-08-22T02:09:58.896Z,944
2022-08-22T02:11:00.743Z,944
2022-08-22T02:12:21.389Z,944
2022-08-22T02:13:24.001Z,944
2022-08-22T02:14:25.849Z,944
2022-08-22T02:15:27.705Z,944
2022-08-22T02:16:29.549Z,944
2022-08-22T02:17:31.368Z,944
2022-08-22T02:18:33.255Z,944
2022-08-22T02:19:35.100Z,944
2022-08-22T02:20:36.952Z,944
2022-08-22T02:21:38.799Z,944
2022-08-22T02:22:45.262Z,944
2022-08-22T02:23:47.106Z,944
2022-08-22T02:24:48.957Z,944
2022-08-22T02:25:50.809Z,944
2022-08-22T02:26:52.658Z,944
2022-08-22T02:27:54.407Z,944
2022-08-22T02:28:58.200Z,944
2022-08-22T02:30:00.055Z,944
2022-08-22T02:31:01.903Z,944.1
2022-08-22T02:32:03.756Z,944.1
2022-08-22T02:33:05.602Z,944
2022-08-22T02:34:07.451Z,944
2022-08-22T02:35:09.303Z,944
2022-08-22T02:36:11.251Z,944
2022-08-22T02:37:13.209Z,944
2022-08-22T02:38:15.056Z,944
2022-08-22T02:39:16.804Z,944
2022-08-22T02:40:21.556Z,944
2022-08-22T02:41:23.475Z,944
2022-08-22T02:42:25.326Z,944
2022-08-22T02:43:27.072Z,944
2022-08-22T02:44:28.932Z,944
2022-08-22T02:45:30.669Z,944
2022-08-22T02:46:32.518Z,944
2022-08-22T02:47:34.369Z,944
2022-08-22T02:48:36.218Z,944
2022-08-22T02:49:44.521Z,944
2022-08-22T02:50:46.369Z,944
2022-08-22T02:51:48.220Z,944
2022-08-22T02:52:50.176Z,944
2022-08-22T02:53:52.021Z,944
2022-08-22T02:54:53.872Z,944
2022-08-22T02:55:55.721Z,944
2022-08-22T02:56:57.576Z,944
2022-08-22T02:58:00.191Z,944
2022-08-22T02:59:02.399Z,944
2022-08-22T03:00:04.249Z,944
2022-08-22T03:01:06.259Z,944
2022-08-22T03:02:08.153Z,944
2022-08-22T03:03:09.939Z,944
2022-08-22T03:04:11.853Z,944
2022-08-22T03:05:13.701Z,944
2022-08-22T03:06:22.387Z,944.1
2022-08-22T03:07:24.263Z,944
2022-08-22T03:08:29.494Z,944
2022-08-22T03:09:31.344Z,944
2022-08-22T03:10:33.195Z,944.1
2022-08-22T03:11:35.044Z,944
2022-08-22T03:12:36.892Z,944.1
2022-08-22T03:13:38.849Z,944.1
2022-08-22T03:14:40.696Z,944.1
2022-08-22T03:15:49.923Z,944.1
2022-08-22T03:16:51.767Z,944.1
2022-08-22T03:17:53.719Z,944
2022-08-22T03:18:55.466Z,944.1
2022-08-22T03:19:57.431Z,944.1
2022-08-22T03:20:59.383Z,944.1
2022-08-22T03:22:01.222Z,944.1
2022-08-22T03:23:03.078Z,944.1
2022-08-22T03:24:04.921Z,944.1
2022-08-22T03:25:06.883Z,944.2
2022-08-22T03:26:08.728Z,944.2
2022-08-22T03:27:10.576Z,944.2
2022-08-22T03:28:12.321Z,944.2
2022-08-22T03:29:14.172Z,944.2
2022-08-22T03:30:16.027Z,944.2
2022-08-22T03:31:17.876Z,944.2
2022-08-22T03:32:19.725Z,944.1
2022-08-22T03:33:21.675Z,944.2
2022-08-22T03:34:23.531Z,944.2
2022-08-22T03:35:25.373Z,944.2
2022-08-22T03:36:27.226Z,944.2
2022-08-22T03:37:29.104Z,944.2
2022-08-22T03:38:31.030Z,944.2
2022-08-22T03:39:32.876Z,944.2
2022-08-22T03:40:34.838Z,944.2
2022-08-22T03:41:36.679Z,944.2
2022-08-22T03:42:38.532Z,944.2
2022-08-22T03:43:40.379Z,944.1
2022-08-22T03:44:42.232Z,944.2
2022-08-22T03:45:44.185Z,944.2
2022-08-22T03:46:49.004Z,944.2
2022-08-22T03:47:50.855Z,944.2
2022-08-22T03:48:52.706Z,944.2
2022-08-22T03:49:59.981Z,944.2
2022-08-22T03:51:01.830Z,944.2
2022-08-22T03:52:03.885Z,944.2
2022-08-22T03:53:05.738Z,944.2
2022-08-22T03:54:11.887Z,944.2
2022-08-22T03:55:13.735Z,944.2
2022-08-22T03:56:15.687Z,944.2
2022-08-22T03:57:17.541Z,944.2
2022-08-22T03:58:28.719Z,944.2
2022-08-22T03:59:30.454Z,944.2
2022-08-22T04:00:32.634Z,944.1
2022-08-22T04:01:34.568Z,944.1
2022-08-22T04:02:44.708Z,944.1
2022-08-22T04:03:46.558Z,944.1
2022-08-22T04:04:48.611Z,944.1
2022-08-22T04:05:53.762Z,944.1
2022-08-22T04:06:56.824Z,944.1
2022-08-22T04:07:59.519Z,944.1
2022-08-22T04:09:02.055Z,944.1
2022-08-22T04:10:03.906Z,944.1
2022-08-22T04:11:05.754Z,944.1
2022-08-22T04:12:07.705Z,944.1
2022-08-22T04:13:09.661Z,944.2
2022-08-22T04:14:11.609Z,944.1
2022-08-22T04:15:13.358Z,944.2
2022-08-22T04:16:15.207Z,944.2
2022-08-22T04:17:17.065Z,944.1
2022-08-22T04:18:18.912Z,944.1
2022-08-22T04:19:20.759Z,944.1
2022-08-22T04:20:22.608Z,944.1
2022-08-22T04:21:24.560Z,944.1
2022-08-22T04:22:26.410Z,944.1
2022-08-22T04:23:28.262Z,944.1
2022-08-22T04:24:30.215Z,944.1
2022-08-22T04:25:31.961Z,944.2
2022-08-22T04:26:33.886Z,944.2
2022-08-22T04:27:35.763Z,944.2
2022-08-22T04:28:37.614Z,944.1
2022-08-22T04:29:39.384Z,944.2
2022-08-22T04:30:41.211Z,944.1
2022-08-22T04:31:43.060Z,944.2
2022-08-22T04:32:45.019Z,944.2
2022-08-22T04:33:46.942Z,944.2
2022-08-22T04:34:48.826Z,944.2
2022-08-22T04:35:50.663Z,944.2
2022-08-22T04:36:52.412Z,944.2
2022-08-22T04:37:54.264Z,944.2
2022-08-22T04:38:56.216Z,944.3
2022-08-22T04:39:58.222Z,944.2
2022-08-22T04:41:05.138Z,944.3
2022-08-22T04:42:33.666Z,944.3
2022-08-22T04:43:35.461Z,944.3
2022-08-22T04:44:37.319Z,944.3
2022-08-22T04:45:39.161Z,944.2
2022-08-22T04:46:41.012Z,944.3
2022-08-22T04:47:49.763Z,944.3
2022-08-22T04:48:56.079Z,944.3
2022-08-22T04:49:57.925Z,944.2
2022-08-22T04:50:59.775Z,944.3
2022-08-22T04:52:01.730Z,944.3
2022-08-22T04:53:03.588Z,944.3
2022-08-22T04:54:05.431Z,944.3
2022-08-22T04:55:07.280Z,944.3
2022-08-22T04:56:09.131Z,944.3
2022-08-22T04:57:10.949Z,944.4
2022-08-22T04:58:12.934Z,944.3
2022-08-22T04:59:14.704Z,944.4
2022-08-22T05:00:16.557Z,944.4
2022-08-22T05:01:18.602Z,944.4
2022-08-22T05:02:20.536Z,944.4
2022-08-22T05:03:22.389Z,944.4
2022-08-22T05:04:24.238Z,944.4
2022-08-22T05:05:26.086Z,944.4
2022-08-22T05:06:27.934Z,944.4
2022-08-22T05:07:36.544Z,944.4
2022-08-22T05:08:39.929Z,944.4
2022-08-22T05:09:41.883Z,944.5
2022-08-22T05:10:43.629Z,944.4
2022-08-22T05:11:45.482Z,944.5
2022-08-22T05:12:47.335Z,944.5
2022-08-22T05:13:49.191Z,944.5
2022-08-22T05:14:54.822Z,944.5
2022-08-22T05:15:56.670Z,944.5
2022-08-22T05:16:58.489Z,944.5
2022-08-22T05:18:00.832Z,944.5
2022-08-22T05:19:02.732Z,944.6
2022-08-22T05:20:04.586Z,944.5
2022-08-22T05:21:07.965Z,944.5
2022-08-22T05:22:15.563Z,944.5
2022-08-22T05:23:18.221Z,944.5
2022-08-22T05:24:20.148Z,944.5
2022-08-22T05:25:22.128Z,944.5
2022-08-22T05:26:23.974Z,944.5
2022-08-22T05:27:25.722Z,944.5
2022-08-22T05:28:27.575Z,944.5
2022-08-22T05:29:29.428Z,944.5
2022-08-22T05:30:31.275Z,944.5
2022-08-22T05:31:33.224Z,944.6
2022-08-22T05:32:34.972Z,944.6
2022-08-22T05:33:39.689Z,944.6
2022-08-22T05:34:42.461Z,944.6
2022-08-22T05:35:57.670Z,944.6
2022-08-22T05:36:59.926Z,944.6
2022-08-22T05:38:01.735Z,944.6
2022-08-22T05:39:03.507Z,944.6
2022-08-22T05:40:05.669Z,944.6
2022-08-22T05:41:07.709Z,944.6
2022-08-22T05:42:10.159Z,944.6
2022-08-22T05:43:11.922Z,944.6
2022-08-22T05:44:13.586Z,944.6
2022-08-22T05:45:15.398Z,944.7
2022-08-22T05:46:17.173Z,944.7
2022-08-22T05:47:18.821Z,944.7
2022-08-22T05:48:20.642Z,944.7
2022-08-22T05:49:22.499Z,944.7
2022-08-22T05:50:24.445Z,944.7
2022-08-22T05:51:26.195Z,944.7
2022-08-22T05:52:29.579Z,944.7
2022-08-22T05:53:33.580Z,944.7
2022-08-22T05:54:35.439Z,944.8
2022-08-22T05:55:37.281Z,944.8
2022-08-22T05:56:39.236Z,944.8
2022-08-22T05:57:43.958Z,944.8
2022-08-22T05:58:45.717Z,944.8
2022-08-22T05:59:47.471Z,944.8
2022-08-22T06:00:49.194Z,944.8
2022-08-22T06:01:51.208Z,944.8
2022-08-22T06:02:53.066Z,944.8
2022-08-22T06:03:54.947Z,944.8
2022-08-22T06:04:57.924Z,944.9
2022-08-22T06:05:59.882Z,944.9
2022-08-22T06:07:01.731Z,944.9
2022-08-22T06:08:03.576Z,944.9
2022-08-22T06:09:05.530Z,944.9
2022-08-22T06:10:07.378Z,944.9
2022-08-22T06:11:09.196Z,944.9
2022-08-22T06:12:22.750Z,944.9
2022-08-22T06:13:26.209Z,944.9
2022-08-22T06:14:33.311Z,944.9
2022-08-22T06:15:36.594Z,944.9
2022-08-22T06:16:49.197Z,944.9
2022-08-22T06:17:51.053Z,944.9
2022-08-22T06:18:53.013Z,944.9
2022-08-22T06:19:54.747Z,944.9
2022-08-22T06:20:56.600Z,944.9
2022-08-22T06:21:58.966Z,944.9
2022-08-22T06:23:01.423Z,944.9
2022-08-22T06:24:03.273Z,944.9
2022-08-22T06:25:05.051Z,944.9
2022-08-22T06:26:21.822Z,944.9
2022-08-22T06:27:24.084Z,944.9
2022-08-22T06:28:25.935Z,944.9
2022-08-22T06:29:27.794Z,944.9
2022-08-22T06:30:29.565Z,944.9
2022-08-22T06:31:31.565Z,944.9
2022-08-22T06:33:01.284Z,944.9
2022-08-22T06:34:03.142Z,944.9
2022-08-22T06:35:06.526Z,944.9
2022-08-22T06:36:08.271Z,945
2022-08-22T06:37:10.131Z,945
2022-08-22T06:38:11.972Z,945
2022-08-22T06:39:13.923Z,945
2022-08-22T06:40:16.105Z,945
2022-08-22T06:41:17.953Z,945
2022-08-22T06:42:19.881Z,945
2022-08-22T06:43:21.630Z,945
2022-08-22T06:44:23.378Z,944.9
2022-08-22T06:45:25.226Z,945
2022-08-22T06:46:27.076Z,945
2022-08-22T06:47:29.030Z,944.9
2022-08-22T06:48:30.776Z,944.9
2022-08-22T06:49:32.627Z,944.9
2022-08-22T06:50:34.299Z,945
2022-08-22T06:51:36.122Z,944.9
2022-08-22T06:52:38.073Z,944.9
2022-08-22T06:53:48.732Z,944.9
2022-08-22T06:54:50.684Z,944.9
2022-08-22T06:55:52.539Z,944.9
2022-08-22T06:56:54.312Z,944.9
2022-08-22T06:57:56.238Z,944.9
2022-08-22T06:58:58.081Z,944.9
2022-08-22T06:59:59.831Z,944.9
2022-08-22T07:01:12.948Z,944.9
2022-08-22T07:02:16.721Z,944.9
2022-08-22T07:03:18.693Z,945
2022-08-22T07:04:20.551Z,945
2022-08-22T07:05:22.319Z,944.9
2022-08-22T07:06:24.141Z,944.9
2022-08-22T07:07:26.093Z,944.9
2022-08-22T07:08:28.045Z,944.9
2022-08-22T07:09:29.815Z,944.9
2022-08-22T07:10:31.541Z,944.9
2022-08-22T07:11:33.388Z,944.9
2022-08-22T07:12:35.250Z,945
2022-08-22T07:13:37.090Z,945
2022-08-22T07:14:39.042Z,945
2022-08-22T07:15:40.894Z,945
2022-08-22T07:16:42.750Z,945
2022-08-22T07:17:44.593Z,945
2022-08-22T07:18:46.442Z,945
2022-08-22T07:19:48.398Z,945
2022-08-22T07:20:55.466Z,945
2022-08-22T07:21:57.319Z,945
2022-08-22T07:22:59.170Z,945
2022-08-22T07:24:01.122Z,945
2022-08-22T07:25:02.866Z,945
2022-08-22T07:26:05.026Z,945
2022-08-22T07:27:07.809Z,945
2022-08-22T07:28:16.617Z,945
2022-08-22T07:29:18.462Z,945.1
2022-08-22T07:30:28.948Z,945
2022-08-22T07:31:32.197Z,945
2022-08-22T07:32:34.761Z,945
2022-08-22T07:33:36.511Z,945.1
2022-08-22T07:34:38.363Z,945
2022-08-22T07:35:40.217Z,945
2022-08-22T07:36:42.162Z,945
2022-08-22T07:37:44.115Z,945
2022-08-22T07:38:45.966Z,945
2022-08-22T07:39:47.831Z,945
2022-08-22T07:40:49.678Z,945
2022-08-22T07:41:51.413Z,945
2022-08-22T07:42:53.162Z,945
2022-08-22T07:43:55.017Z,945
2022-08-22T07:44:56.859Z,945
2022-08-22T07:45:58.543Z,945
2022-08-22T07:47:00.482Z,945
2022-08-22T07:48:02.719Z,944.9
2022-08-22T07:49:10.509Z,945
2022-08-22T07:50:12.262Z,945
2022-08-22T07:51:14.032Z,945
2022-08-22T07:52:15.857Z,945
2022-08-22T07:53:17.705Z,945
2022-08-22T07:54:19.553Z,945
2022-08-22T07:55:22.027Z,945
2022-08-22T07:56:23.869Z,945
2022-08-22T07:57:25.640Z,945
2022-08-22T07:58:27.363Z,944.9
2022-08-22T07:59:29.183Z,945
2022-08-22T08:00:31.063Z,945
2022-08-22T08:01:33.154Z,945
2022-08-22T08:02:35.068Z,945
2022-08-22T08:03:36.841Z,945
2022-08-22T08:04:41.155Z,945
2022-08-22T08:05:42.876Z,944.9
2022-08-22T08:06:44.622Z,945
2022-08-22T08:07:46.500Z,944.9
2022-08-22T08:08:48.241Z,945
2022-08-22T08:09:49.896Z,945
2022-08-22T08:10:51.818Z,945
2022-08-22T08:11:53.666Z,945
2022-08-22T08:13:03.300Z,944.9
2022-08-22T08:14:05.149Z,945
2022-08-22T08:15:06.993Z,945
2022-08-22T08:16:08.847Z,944.9
2022-08-22T08:17:10.716Z,945
2022-08-22T08:18:12.545Z,944.9
2022-08-22T08:19:14.405Z,944.9
2022-08-22T08:20:16.248Z,944.9
2022-08-22T08:21:18.101Z,944.9
2022-08-22T08:22:19.950Z,944.9
2022-08-22T08:23:24.359Z,944.8
2022-08-22T08:24:26.314Z,944.8
2022-08-22T08:25:28.471Z,944.8
2022-08-22T08:26:30.322Z,944.8
2022-08-22T08:27:32.039Z,944.8
2022-08-22T08:28:34.123Z,944.8
2022-08-22T08:29:36.384Z,944.8
2022-08-22T08:30:38.153Z,944.8
2022-08-22T08:31:45.406Z,944.8
2022-08-22T08:32:47.253Z,944.8
2022-08-22T08:33:49.103Z,944.8
2022-08-22T08:34:51.570Z,944.8
2022-08-22T08:36:04.228Z,944.8
2022-08-22T08:37:06.132Z,944.8
2022-08-22T08:38:07.986Z,944.8
2022-08-22T08:39:09.839Z,944.9
2022-08-22T08:40:11.796Z,944.8
2022-08-22T08:41:13.935Z,944.8
2022-08-22T08:42:15.782Z,944.8
2022-08-22T08:43:17.531Z,944.8
2022-08-22T08:44:19.382Z,944.8
2022-08-22T08:45:21.129Z,944.8
2022-08-22T08:46:23.011Z,944.8
2022-08-22T08:47:24.829Z,944.8
2022-08-22T08:48:26.692Z,944.8
2022-08-22T08:49:33.957Z,944.8
2022-08-22T08:50:36.732Z,944.8
2022-08-22T08:51:40.319Z,944.8
2022-08-22T08:52:42.171Z,944.8
2022-08-22T08:53:44.115Z,944.8
2022-08-22T08:54:47.607Z,944.8
2022-08-22T08:55:49.453Z,944.7
2022-08-22T08:56:55.306Z,944.7
2022-08-22T08:57:57.457Z,944.8
2022-08-22T08:58:59.515Z,944.7
2022-08-22T09:00:01.508Z,944.7
2022-08-22T09:01:05.601Z,944.7
2022-08-22T09:02:07.666Z,944.7
2022-08-22T09:03:29.939Z,944.7
2022-08-22T09:04:32.933Z,944.7
2022-08-22T09:05:34.783Z,944.7
2022-08-22T09:06:36.672Z,944.7
2022-08-22T09:07:43.853Z,944.7
2022-08-22T09:08:45.966Z,944.7
2022-08-22T09:09:54.576Z,944.7
2022-08-22T09:10:57.650Z,944.8
2022-08-22T09:11:59.500Z,944.7
2022-08-22T09:13:13.335Z,944.7
2022-08-22T09:14:15.188Z,944.7
2022-08-22T09:15:18.360Z,944.7
2022-08-22T09:16:20.232Z,944.7
2022-08-22T09:17:23.905Z,944.7
2022-08-22T09:18:27.325Z,944.7
2022-08-22T09:19:29.860Z,944.6
2022-08-22T09:20:32.532Z,944.7
2022-08-22T09:21:34.947Z,944.8
2022-08-22T09:22:51.286Z,944.7
2022-08-22T09:23:53.853Z,944.7
2022-08-22T09:24:55.662Z,944.7
2022-08-22T09:25:57.757Z,944.7
2022-08-22T09:27:00.985Z,944.7
2022-08-22T09:28:02.911Z,944.7
2022-08-22T09:29:05.565Z,944.7
2022-08-22T09:30:07.404Z,944.7
2022-08-22T09:31:57.056Z,944.7
2022-08-22T09:33:01.925Z,944.7
2022-08-22T09:34:05.807Z,944.7
2022-08-22T09:35:08.158Z,944.7
2022-08-22T09:36:12.978Z,944.6
2022-08-22T09:37:14.753Z,944.6
2022-08-22T09:38:19.856Z,944.6
2022-08-22T09:39:22.416Z,944.6
2022-08-22T09:41:27.262Z,944.7
2022-08-22T09:42:30.937Z,944.6
2022-08-22T09:43:37.668Z,944.6
2022-08-22T09:44:50.924Z,944.6
2022-08-22T09:45:52.773Z,944.6
2022-08-22T09:46:56.674Z,944.5
2022-08-22T09:48:08.040Z,944.5
2022-08-22T09:49:10.508Z,944.5
2022-08-22T09:50:12.454Z,944.5
2022-08-22T09:51:33.662Z,944.5
2022-08-22T09:52:37.250Z,944.5
2022-08-22T09:53:39.410Z,944.4
2022-08-22T09:54:41.194Z,944.4
2022-08-22T09:55:42.905Z,944.4
2022-08-22T09:56:45.368Z,944.4
2022-08-22T09:57:47.460Z,944.4
2022-08-22T09:58:49.273Z,944.4
2022-08-22T09:59:51.137Z,944.4
2022-08-22T10:00:55.777Z,944.3
2022-08-22T10:01:58.100Z,944.3
2022-08-22T10:03:02.610Z,944.3
2022-08-22T10:04:06.408Z,944.3
2022-08-22T10:05:08.268Z,944.3
2022-08-22T10:06:10.114Z,944.3
2022-08-22T10:07:13.814Z,944.3
2022-08-22T10:08:26.409Z,944.3
2022-08-22T10:09:32.498Z,944.3
2022-08-22T10:10:34.259Z,944.2
2022-08-22T10:11:43.262Z,944.2
2022-08-22T10:12:45.333Z,944.2
2022-08-22T10:14:01.974Z,944.2
2022-08-22T10:15:07.336Z,944.2
2022-08-22T10:16:10.798Z,944.2
2022-08-22T10:17:12.725Z,944.1
2022-08-22T10:18:14.593Z,944.2
2022-08-22T10:19:18.405Z,944.1
2022-08-22T10:20:21.786Z,944.2
2022-08-22T10:21:23.738Z,944.1
2022-08-22T10:22:31.214Z,944.1
2022-08-22T10:23:35.214Z,944.1
2022-08-22T10:24:44.536Z,944
2022-08-22T10:25:46.794Z,944.1
2022-08-22T10:26:48.955Z,944
2022-08-22T10:27:50.916Z,944
2022-08-22T10:28:53.166Z,944
2022-08-22T10:29:55.016Z,944
2022-08-22T10:30:56.869Z,944
2022-08-22T10:32:01.350Z,944
2022-08-22T10:33:16.338Z,943.9
2022-08-22T10:34:22.909Z,943.9
2022-08-22T10:35:26.079Z,943.9
2022-08-22T10:36:28.249Z,943.9
2022-08-22T10:37:30.094Z,943.9
2022-08-22T10:38:36.134Z,943.9
2022-08-22T10:39:50.736Z,943.8
2022-08-22T10:40:53.552Z,943.8
2022-08-22T10:41:58.063Z,943.8
2022-08-22T10:43:00.636Z,943.8
2022-08-22T10:44:04.948Z,943.8
2022-08-22T10:45:07.100Z,943.8
2022-08-22T10:46:13.967Z,943.8
2022-08-22T10:47:19.400Z,943.8
2022-08-22T10:48:22.477Z,943.8
2022-08-22T10:49:30.201Z,943.8
2022-08-22T10:50:32.321Z,943.8
2022-08-22T10:51:37.112Z,943.8
2022-08-22T10:52:39.813Z,943.9
2022-08-22T10:53:41.662Z,943.9
2022-08-22T10:54:43.619Z,943.8
2022-08-22T10:55:46.083Z,943.8
2022-08-22T10:56:48.029Z,943.9
2022-08-22T10:57:53.364Z,943.8
2022-08-22T10:58:55.313Z,943.8
2022-08-22T10:59:57.064Z,943.8
2022-08-22T11:00:59.188Z,943.8
2022-08-22T11:02:02.937Z,943.8
2022-08-22T11:03:23.384Z,943.8
2022-08-22T11:04:28.731Z,943.8
2022-08-22T11:05:30.585Z,943.8
2022-08-22T11:06:32.745Z,943.9
2022-08-22T11:07:35.922Z,943.9
2022-08-22T11:08:41.049Z,943.9
2022-08-22T11:09:43.508Z,943.9
2022-08-22T11:10:45.296Z,943.8
2022-08-22T11:11:50.104Z,943.8
2022-08-22T11:12:51.927Z,943.8
2022-08-22T11:13:53.778Z,943.8
2022-08-22T11:14:57.161Z,943.8
2022-08-22T11:15:59.422Z,943.8
2022-08-22T11:17:28.232Z,943.8
2022-08-22T11:18:45.121Z,943.8
2022-08-22T11:20:20.015Z,943.8
2022-08-22T11:21:23.211Z,943.8
2022-08-22T11:22:26.293Z,943.8
2022-08-22T11:23:28.142Z,943.8
2022-08-22T11:24:58.057Z,943.8
2022-08-22T11:26:06.145Z,943.8
2022-08-22T11:27:20.912Z,943.7
2022-08-22T11:28:39.473Z,943.7
2022-08-22T11:29:44.671Z,943.7
2022-08-22T11:30:50.823Z,943.7
2022-08-22T11:31:52.830Z,943.7
2022-08-22T11:33:00.623Z,943.8
2022-08-22T11:34:03.131Z,943.7
2022-08-22T11:35:09.794Z,943.8
2022-08-22T11:36:11.644Z,943.7
2022-08-22T11:37:13.496Z,943.7
2022-08-22T11:38:15.444Z,943.6
2022-08-22T11:39:19.245Z,943.7
2022-08-22T11:40:21.319Z,943.7
2022-08-22T11:41:23.657Z,943.7
2022-08-22T11:42:30.123Z,943.7
2022-08-22T11:43:32.988Z,943.6
2022-08-22T11:44:51.285Z,943.6
2022-08-22T11:45:53.045Z,943.6
2022-08-22T11:46:55.365Z,943.6
2022-08-22T11:48:01.288Z,943.6
2022-08-22T11:49:03.366Z,943.6
2022-08-22T11:50:14.400Z,943.6
2022-08-22T11:51:25.478Z,943.6
2022-08-22T11:52:28.751Z,943.6
2022-08-22T11:53:30.912Z,943.6
2022-08-22T11:54:32.688Z,943.6
2022-08-22T11:55:35.122Z,943.5
2022-08-22T11:56:41.988Z,943.5
2022-08-22T11:57:48.553Z,943.5
2022-08-22T11:58:50.608Z,943.6
2022-08-22T11:59:52.965Z,943.5
2022-08-22T12:00:58.227Z,943.6
2022-08-22T12:02:00.329Z,943.6
2022-08-22T12:03:02.403Z,943.5
2022-08-22T12:04:04.259Z,943.6
2022-08-22T12:05:06.533Z,943.6
2022-08-22T12:06:08.364Z,943.5
2022-08-22T12:07:11.123Z,943.5
2022-08-22T12:08:12.885Z,943.5
2022-08-22T12:09:18.662Z,943.5
2022-08-22T12:10:22.631Z,943.5
2022-08-22T12:11:24.474Z,943.5
2022-08-22T12:12:27.347Z,943.5
2022-08-22T12:13:35.755Z,943.5
2022-08-22T12:14:37.706Z,943.5
2022-08-22T12:15:41.398Z,943.5
2022-08-22T12:16:47.762Z,943.5
2022-08-22T12:18:02.211Z,943.5
2022-08-22T12:19:04.458Z,943.5
2022-08-22T12:20:18.933Z,943.4
2022-08-22T12:21:22.276Z,943.4
2022-08-22T12:22:29.264Z,943.4
2022-08-22T12:23:50.667Z,943.4
2022-08-22T12:24:54.199Z,943.3
2022-08-22T12:25:55.934Z,943.3
2022-08-22T12:26:57.754Z,943.3
2022-08-22T12:28:00.117Z,943.3
2022-08-22T12:29:02.479Z,943.3
2022-08-22T12:30:13.814Z,943.2
2022-08-22T12:31:16.212Z,943.2
2022-08-22T12:32:28.201Z,943.2
2022-08-22T12:33:33.430Z,943.2
2022-08-22T12:34:37.151Z,943.1
2022-08-22T12:35:39.487Z,943.1
2022-08-22T12:36:41.542Z,943.1
2022-08-22T12:37:54.141Z,943.1
2022-08-22T12:38:56.095Z,943.1
2022-08-22T12:39:58.364Z,943
2022-08-22T12:41:00.307Z,943
2022-08-22T12:42:04.614Z,943
2022-08-22T12:43:09.537Z,943
2022-08-22T12:44:17.742Z,943
2022-08-22T12:45:19.798Z,942.9
2022-08-22T12:46:22.053Z,942.9
2022-08-22T12:47:23.901Z,942.9
2022-08-22T12:48:27.797Z,942.9
2022-08-22T12:49:30.160Z,942.9
2022-08-22T12:50:32.060Z,942.8
2022-08-22T12:51:33.964Z,942.9
2022-08-22T12:52:36.326Z,942.9
2022-08-22T12:53:38.728Z,942.9
2022-08-22T12:54:40.641Z,942.9
2022-08-22T12:55:43.820Z,942.8
2022-08-22T12:56:49.253Z,942.9
2022-08-22T12:57:54.836Z,942.9
2022-08-22T12:58:56.846Z,942.9
2022-08-22T13:00:02.015Z,942.9
2022-08-22T13:01:06.500Z,942.9
2022-08-22T13:02:09.359Z,942.9
2022-08-22T13:03:11.724Z,942.9
2022-08-22T13:04:34.481Z,942.9
2022-08-22T13:05:41.536Z,942.9
2022-08-22T13:06:50.243Z,942.9
2022-08-22T13:07:52.131Z,943
2022-08-22T13:08:53.844Z,943
2022-08-22T13:09:55.741Z,943
2022-08-22T13:10:58.054Z,943.1
2022-08-22T13:12:02.767Z,943.1
2022-08-22T13:13:13.017Z,943.2
2022-08-22T13:14:26.146Z,943.2
2022-08-22T13:15:29.311Z,943.3
2022-08-22T13:16:31.368Z,943.3
2022-08-22T13:17:36.394Z,943.3
2022-08-22T13:18:38.241Z,943.3
2022-08-22T13:19:46.850Z,943.3
2022-08-22T13:20:48.810Z,943.3
2022-08-22T13:21:50.661Z,943.3
2022-08-22T13:22:57.211Z,943.3
2022-08-22T13:23:59.683Z,943.3
2022-08-22T13:25:05.233Z,943.3
2022-08-22T13:26:11.675Z,943.3
2022-08-22T13:27:35.232Z,943.4
2022-08-22T13:28:37.262Z,943.4
2022-08-22T13:29:43.244Z,943.5
2022-08-22T13:30:48.564Z,943.6
2022-08-22T13:31:51.575Z,943.7
2022-08-22T13:32:53.498Z,943.7
2022-08-22T13:34:00.977Z,943.7
2022-08-22T13:35:03.849Z,943.6
2022-08-22T13:36:06.018Z,943.7
2022-08-22T13:37:11.345Z,943.6
2022-08-22T13:38:13.003Z,943.6
2022-08-22T13:39:19.758Z,943.6
2022-08-22T13:40:21.938Z,943.6
2022-08-22T13:41:23.859Z,943.6
2022-08-22T13:42:32.418Z,943.6
2022-08-22T13:43:34.089Z,943.6
2022-08-22T13:44:35.961Z,943.7
2022-08-22T13:45:37.799Z,943.7
2022-08-22T13:47:14.975Z,943.7
2022-08-22T13:48:17.356Z,943.8
2022-08-22T13:49:23.606Z,943.8
2022-08-22T13:50:25.314Z,944
2022-08-22T13:51:28.350Z,944
2022-08-22T13:52:30.797Z,944
2022-08-22T13:53:33.260Z,944
2022-08-22T13:54:40.744Z,944.1